sensor_id;sensor_type;location;lat;lon;timestamp;P1;durP1;ratioP1;P2;durP2;ratioP2
11582;SDS011;34299;50.820;4.548;2023-04-06T00:00:45;17.43;;;8.60;;
11582;SDS011;34299;50.820;4.548;2023-04-06T00:03:13;13.93;;;8.67;;
11582;SDS011;34299;50.820;4.548;2023-04-06T00:05:41;12.10;;;8.23;;
11582;SDS011;34299;50.820;4.548;2023-04-06T00:08:08;16.07;;;8.53;;
11582;SDS011;34299;50.820;4.548;2023-04-06T00:10:35;13.50;;;8.40;;
11582;SDS011;34299;50.820;4.548;2023-04-06T00:13:03;13.97;;;7.77;;
11582;SDS011;34299;50.820;4.548;2023-04-06T00:15:30;15.73;;;8.03;;
11582;SDS011;34299;50.820;4.548;2023-04-06T00:17:57;13.33;;;8.00;;
11582;SDS011;34299;50.820;4.548;2023-04-06T00:20:26;13.77;;;8.60;;
11582;SDS011;34299;50.820;4.548;2023-04-06T00:22:53;14.23;;;8.27;;
11582;SDS011;34299;50.820;4.548;2023-04-06T00:25:20;12.67;;;7.93;;
11582;SDS011;34299;50.820;4.548;2023-04-06T00:27:47;13.67;;;8.00;;
11582;SDS011;34299;50.820;4.548;2023-04-06T00:30:15;14.93;;;8.20;;
11582;SDS011;34299;50.820;4.548;2023-04-06T00:32:42;14.17;;;8.27;;
11582;SDS011;34299;50.820;4.548;2023-04-06T00:35:09;14.70;;;8.50;;
11582;SDS011;34299;50.820;4.548;2023-04-06T00:37:38;10.33;;;7.83;;
11582;SDS011;34299;50.820;4.548;2023-04-06T00:40:06;15.20;;;8.60;;
11582;SDS011;34299;50.820;4.548;2023-04-06T00:42:33;13.80;;;8.43;;
11582;SDS011;34299;50.820;4.548;2023-04-06T00:45:01;11.43;;;7.67;;
11582;SDS011;34299;50.820;4.548;2023-04-06T00:47:28;14.30;;;8.47;;
11582;SDS011;34299;50.820;4.548;2023-04-06T00:49:56;14.30;;;8.27;;
11582;SDS011;34299;50.820;4.548;2023-04-06T00:52:23;13.40;;;7.87;;
11582;SDS011;34299;50.820;4.548;2023-04-06T00:54:52;13.13;;;8.13;;
11582;SDS011;34299;50.820;4.548;2023-04-06T00:57:19;15.70;;;8.23;;
11582;SDS011;34299;50.820;4.548;2023-04-06T00:59:46;12.97;;;7.80;;
11582;SDS011;34299;50.820;4.548;2023-04-06T01:02:14;13.10;;;7.87;;
11582;SDS011;34299;50.820;4.548;2023-04-06T01:04:41;13.43;;;7.73;;
11582;SDS011;34299;50.820;4.548;2023-04-06T01:07:08;12.40;;;7.53;;
11582;SDS011;34299;50.820;4.548;2023-04-06T01:09:38;13.83;;;7.93;;
11582;SDS011;34299;50.820;4.548;2023-04-06T01:12:08;14.97;;;7.97;;
11582;SDS011;34299;50.820;4.548;2023-04-06T01:14:35;14.97;;;8.13;;
11582;SDS011;34299;50.820;4.548;2023-04-06T01:17:03;12.73;;;8.10;;
11582;SDS011;34299;50.820;4.548;2023-04-06T01:19:30;14.03;;;7.60;;
11582;SDS011;34299;50.820;4.548;2023-04-06T01:21:57;13.30;;;7.97;;
11582;SDS011;34299;50.820;4.548;2023-04-06T01:24:26;13.23;;;7.77;;
11582;SDS011;34299;50.820;4.548;2023-04-06T01:26:53;11.97;;;7.07;;
11582;SDS011;34299;50.820;4.548;2023-04-06T01:29:21;10.90;;;6.93;;
11582;SDS011;34299;50.820;4.548;2023-04-06T01:31:49;15.17;;;7.70;;
11582;SDS011;34299;50.820;4.548;2023-04-06T01:34:16;9.50;;;6.70;;
11582;SDS011;34299;50.820;4.548;2023-04-06T01:36:43;13.00;;;7.83;;
11582;SDS011;34299;50.820;4.548;2023-04-06T01:39:10;12.53;;;7.63;;
11582;SDS011;34299;50.820;4.548;2023-04-06T01:41:39;10.30;;;7.10;;
11582;SDS011;34299;50.820;4.548;2023-04-06T01:44:06;10.53;;;6.90;;
11582;SDS011;34299;50.820;4.548;2023-04-06T01:46:33;11.53;;;7.20;;
11582;SDS011;34299;50.820;4.548;2023-04-06T01:49:01;11.60;;;6.57;;
11582;SDS011;34299;50.820;4.548;2023-04-06T01:51:28;10.77;;;6.67;;
11582;SDS011;34299;50.820;4.548;2023-04-06T01:53:55;16.57;;;7.50;;
11582;SDS011;34299;50.820;4.548;2023-04-06T01:56:23;11.47;;;6.97;;
11582;SDS011;34299;50.820;4.548;2023-04-06T01:58:52;11.50;;;7.63;;
11582;SDS011;34299;50.820;4.548;2023-04-06T02:01:20;12.50;;;7.13;;
11582;SDS011;34299;50.820;4.548;2023-04-06T02:03:47;15.20;;;8.00;;
11582;SDS011;34299;50.820;4.548;2023-04-06T02:06:15;11.13;;;6.77;;
11582;SDS011;34299;50.820;4.548;2023-04-06T02:08:42;11.87;;;7.37;;
11582;SDS011;34299;50.820;4.548;2023-04-06T02:11:09;13.60;;;7.43;;
11582;SDS011;34299;50.820;4.548;2023-04-06T02:13:37;13.23;;;7.37;;
11582;SDS011;34299;50.820;4.548;2023-04-06T02:16:06;11.17;;;7.20;;
11582;SDS011;34299;50.820;4.548;2023-04-06T02:18:33;11.33;;;7.87;;
11582;SDS011;34299;50.820;4.548;2023-04-06T02:21:00;9.97;;;5.97;;
11582;SDS011;34299;50.820;4.548;2023-04-06T02:23:28;11.90;;;6.77;;
11582;SDS011;34299;50.820;4.548;2023-04-06T02:25:55;10.90;;;6.97;;
11582;SDS011;34299;50.820;4.548;2023-04-06T02:28:22;14.03;;;8.33;;
11582;SDS011;34299;50.820;4.548;2023-04-06T02:30:49;10.87;;;7.47;;
11582;SDS011;34299;50.820;4.548;2023-04-06T02:33:18;10.83;;;6.30;;
11582;SDS011;34299;50.820;4.548;2023-04-06T02:35:45;11.43;;;6.77;;
11582;SDS011;34299;50.820;4.548;2023-04-06T02:38:12;13.97;;;7.33;;
11582;SDS011;34299;50.820;4.548;2023-04-06T02:40:40;12.07;;;6.93;;
11582;SDS011;34299;50.820;4.548;2023-04-06T02:43:07;11.97;;;6.70;;
11582;SDS011;34299;50.820;4.548;2023-04-06T02:45:34;10.73;;;7.50;;
11582;SDS011;34299;50.820;4.548;2023-04-06T02:48:01;12.87;;;8.03;;
11582;SDS011;34299;50.820;4.548;2023-04-06T02:50:30;12.07;;;7.03;;
11582;SDS011;34299;50.820;4.548;2023-04-06T02:52:57;13.87;;;7.67;;
11582;SDS011;34299;50.820;4.548;2023-04-06T02:55:25;14.50;;;7.03;;
11582;SDS011;34299;50.820;4.548;2023-04-06T02:57:52;10.10;;;6.50;;
11582;SDS011;34299;50.820;4.548;2023-04-06T03:00:19;11.00;;;6.57;;
11582;SDS011;34299;50.820;4.548;2023-04-06T03:02:47;13.37;;;7.70;;
11582;SDS011;34299;50.820;4.548;2023-04-06T03:05:14;14.27;;;7.80;;
11582;SDS011;34299;50.820;4.548;2023-04-06T03:07:43;11.13;;;6.87;;
11582;SDS011;34299;50.820;4.548;2023-04-06T03:10:10;8.13;;;4.67;;
11582;SDS011;34299;50.820;4.548;2023-04-06T03:12:37;8.67;;;4.80;;
11582;SDS011;34299;50.820;4.548;2023-04-06T03:15:07;8.47;;;4.43;;
11582;SDS011;34299;50.820;4.548;2023-04-06T03:17:34;9.90;;;5.07;;
11582;SDS011;34299;50.820;4.548;2023-04-06T03:20:02;11.77;;;5.53;;
11582;SDS011;34299;50.820;4.548;2023-04-06T03:22:29;12.87;;;6.13;;
11582;SDS011;34299;50.820;4.548;2023-04-06T03:24:58;15.23;;;5.67;;
11582;SDS011;34299;50.820;4.548;2023-04-06T03:27:25;12.80;;;5.30;;
11582;SDS011;34299;50.820;4.548;2023-04-06T03:29:52;11.53;;;5.47;;
11582;SDS011;34299;50.820;4.548;2023-04-06T03:32:19;12.97;;;5.37;;
11582;SDS011;34299;50.820;4.548;2023-04-06T03:34:47;9.00;;;5.10;;
11582;SDS011;34299;50.820;4.548;2023-04-06T03:37:14;9.50;;;4.97;;
11582;SDS011;34299;50.820;4.548;2023-04-06T03:39:41;8.70;;;4.97;;
11582;SDS011;34299;50.820;4.548;2023-04-06T03:42:10;11.50;;;4.83;;
11582;SDS011;34299;50.820;4.548;2023-04-06T03:44:37;11.90;;;6.27;;
11582;SDS011;34299;50.820;4.548;2023-04-06T03:47:04;6.83;;;4.60;;
11582;SDS011;34299;50.820;4.548;2023-04-06T03:49:32;10.07;;;5.70;;
11582;SDS011;34299;50.820;4.548;2023-04-06T03:52:00;10.57;;;5.13;;
11582;SDS011;34299;50.820;4.548;2023-04-06T03:54:27;10.20;;;5.83;;
11582;SDS011;34299;50.820;4.548;2023-04-06T03:56:54;9.17;;;4.60;;
11582;SDS011;34299;50.820;4.548;2023-04-06T03:59:23;8.33;;;4.60;;
11582;SDS011;34299;50.820;4.548;2023-04-06T04:01:50;8.63;;;4.53;;
11582;SDS011;34299;50.820;4.548;2023-04-06T04:04:17;11.43;;;6.20;;
11582;SDS011;34299;50.820;4.548;2023-04-06T04:06:45;7.47;;;4.90;;
11582;SDS011;34299;50.820;4.548;2023-04-06T04:09:12;8.10;;;4.77;;
11582;SDS011;34299;50.820;4.548;2023-04-06T04:11:39;10.60;;;5.97;;
11582;SDS011;34299;50.820;4.548;2023-04-06T04:14:07;7.10;;;4.47;;
11582;SDS011;34299;50.820;4.548;2023-04-06T04:16:35;6.03;;;3.93;;
11582;SDS011;34299;50.820;4.548;2023-04-06T04:19:04;8.17;;;4.37;;
11582;SDS011;34299;50.820;4.548;2023-04-06T04:21:31;8.57;;;4.63;;
11582;SDS011;34299;50.820;4.548;2023-04-06T04:23:58;6.27;;;4.00;;
11582;SDS011;34299;50.820;4.548;2023-04-06T04:26:26;8.13;;;5.17;;
11582;SDS011;34299;50.820;4.548;2023-04-06T04:28:53;9.23;;;5.23;;
11582;SDS011;34299;50.820;4.548;2023-04-06T04:31:20;8.23;;;4.40;;
11582;SDS011;34299;50.820;4.548;2023-04-06T04:33:49;6.73;;;4.43;;
11582;SDS011;34299;50.820;4.548;2023-04-06T04:36:16;11.67;;;4.83;;
11582;SDS011;34299;50.820;4.548;2023-04-06T04:38:43;7.80;;;4.77;;
11582;SDS011;34299;50.820;4.548;2023-04-06T04:41:10;9.10;;;4.77;;
11582;SDS011;34299;50.820;4.548;2023-04-06T04:43:38;7.50;;;4.50;;
11582;SDS011;34299;50.820;4.548;2023-04-06T04:46:05;6.23;;;4.07;;
11582;SDS011;34299;50.820;4.548;2023-04-06T04:48:32;16.07;;;5.60;;
11582;SDS011;34299;50.820;4.548;2023-04-06T04:51:01;10.97;;;5.27;;
11582;SDS011;34299;50.820;4.548;2023-04-06T04:53:28;10.07;;;6.03;;
11582;SDS011;34299;50.820;4.548;2023-04-06T04:55:55;8.77;;;5.40;;
11582;SDS011;34299;50.820;4.548;2023-04-06T04:58:23;10.27;;;5.53;;
11582;SDS011;34299;50.820;4.548;2023-04-06T05:00:50;11.53;;;5.43;;
11582;SDS011;34299;50.820;4.548;2023-04-06T05:03:18;6.23;;;4.73;;
11582;SDS011;34299;50.820;4.548;2023-04-06T05:05:46;6.43;;;3.90;;
11582;SDS011;34299;50.820;4.548;2023-04-06T05:08:15;11.30;;;5.53;;
11582;SDS011;34299;50.820;4.548;2023-04-06T05:10:42;8.63;;;5.80;;
11582;SDS011;34299;50.820;4.548;2023-04-06T05:13:10;7.37;;;5.00;;
11582;SDS011;34299;50.820;4.548;2023-04-06T05:15:37;9.93;;;5.30;;
11582;SDS011;34299;50.820;4.548;2023-04-06T05:18:05;11.57;;;7.00;;
11582;SDS011;34299;50.820;4.548;2023-04-06T05:20:32;14.43;;;6.47;;
11582;SDS011;34299;50.820;4.548;2023-04-06T05:23:00;11.60;;;6.00;;
11582;SDS011;34299;50.820;4.548;2023-04-06T05:25:28;10.70;;;5.93;;
11582;SDS011;34299;50.820;4.548;2023-04-06T05:27:56;9.37;;;6.23;;
11582;SDS011;34299;50.820;4.548;2023-04-06T05:30:23;9.53;;;5.20;;
11582;SDS011;34299;50.820;4.548;2023-04-06T05:32:50;8.50;;;5.37;;
11582;SDS011;34299;50.820;4.548;2023-04-06T05:35:18;9.93;;;5.40;;
11582;SDS011;34299;50.820;4.548;2023-04-06T05:37:45;9.67;;;4.97;;
11582;SDS011;34299;50.820;4.548;2023-04-06T05:40:12;12.33;;;6.27;;
11582;SDS011;34299;50.820;4.548;2023-04-06T05:42:41;12.30;;;5.77;;
11582;SDS011;34299;50.820;4.548;2023-04-06T05:45:09;10.33;;;5.97;;
11582;SDS011;34299;50.820;4.548;2023-04-06T05:47:41;11.23;;;6.37;;
11582;SDS011;34299;50.820;4.548;2023-04-06T05:50:09;11.27;;;6.17;;
11582;SDS011;34299;50.820;4.548;2023-04-06T05:52:36;9.97;;;5.97;;
11582;SDS011;34299;50.820;4.548;2023-04-06T05:55:04;11.03;;;5.97;;
11582;SDS011;34299;50.820;4.548;2023-04-06T05:57:31;13.27;;;6.63;;
11582;SDS011;34299;50.820;4.548;2023-04-06T06:00:00;10.33;;;6.40;;
11582;SDS011;34299;50.820;4.548;2023-04-06T06:02:30;11.73;;;5.93;;
11582;SDS011;34299;50.820;4.548;2023-04-06T06:04:57;10.20;;;5.47;;
11582;SDS011;34299;50.820;4.548;2023-04-06T06:07:25;8.43;;;5.67;;
11582;SDS011;34299;50.820;4.548;2023-04-06T06:09:52;10.50;;;5.50;;
11582;SDS011;34299;50.820;4.548;2023-04-06T06:12:19;11.60;;;6.93;;
11582;SDS011;34299;50.820;4.548;2023-04-06T06:14:46;10.13;;;6.50;;
11582;SDS011;34299;50.820;4.548;2023-04-06T06:17:15;9.50;;;5.87;;
11582;SDS011;34299;50.820;4.548;2023-04-06T06:19:42;9.37;;;5.70;;
11582;SDS011;34299;50.820;4.548;2023-04-06T06:22:10;10.13;;;5.47;;
11582;SDS011;34299;50.820;4.548;2023-04-06T06:24:37;10.77;;;6.60;;
11582;SDS011;34299;50.820;4.548;2023-04-06T06:27:04;10.53;;;5.93;;
11582;SDS011;34299;50.820;4.548;2023-04-06T06:29:32;11.47;;;6.70;;
11582;SDS011;34299;50.820;4.548;2023-04-06T06:32:00;12.17;;;6.73;;
11582;SDS011;34299;50.820;4.548;2023-04-06T06:34:28;13.60;;;6.90;;
11582;SDS011;34299;50.820;4.548;2023-04-06T06:36:55;9.33;;;5.90;;
11582;SDS011;34299;50.820;4.548;2023-04-06T06:39:23;10.53;;;5.80;;
11582;SDS011;34299;50.820;4.548;2023-04-06T06:41:50;12.30;;;6.13;;
11582;SDS011;34299;50.820;4.548;2023-04-06T06:44:19;14.17;;;7.53;;
11582;SDS011;34299;50.820;4.548;2023-04-06T06:46:46;12.57;;;6.43;;
11582;SDS011;34299;50.820;4.548;2023-04-06T06:49:13;11.73;;;5.97;;
11582;SDS011;34299;50.820;4.548;2023-04-06T06:51:42;11.57;;;6.13;;
11582;SDS011;34299;50.820;4.548;2023-04-06T06:54:11;11.73;;;6.70;;
11582;SDS011;34299;50.820;4.548;2023-04-06T06:56:38;10.93;;;6.60;;
11582;SDS011;34299;50.820;4.548;2023-04-06T06:59:05;12.20;;;7.00;;
11582;SDS011;34299;50.820;4.548;2023-04-06T07:01:33;11.50;;;6.60;;
11582;SDS011;34299;50.820;4.548;2023-04-06T07:04:00;13.37;;;6.97;;
11582;SDS011;34299;50.820;4.548;2023-04-06T07:06:28;10.80;;;6.60;;
11582;SDS011;34299;50.820;4.548;2023-04-06T07:08:56;22.07;;;8.03;;
11582;SDS011;34299;50.820;4.548;2023-04-06T07:11:24;10.83;;;6.90;;
11582;SDS011;34299;50.820;4.548;2023-04-06T07:13:51;16.07;;;7.70;;
11582;SDS011;34299;50.820;4.548;2023-04-06T07:16:18;12.30;;;7.30;;
11582;SDS011;34299;50.820;4.548;2023-04-06T07:18:45;13.33;;;7.33;;
11582;SDS011;34299;50.820;4.548;2023-04-06T07:21:13;11.83;;;6.93;;
11582;SDS011;34299;50.820;4.548;2023-04-06T07:23:40;13.63;;;6.80;;
11582;SDS011;34299;50.820;4.548;2023-04-06T07:26:09;13.97;;;6.67;;
11582;SDS011;34299;50.820;4.548;2023-04-06T07:28:36;13.23;;;6.77;;
11582;SDS011;34299;50.820;4.548;2023-04-06T07:31:03;14.73;;;7.53;;
11582;SDS011;34299;50.820;4.548;2023-04-06T07:33:31;9.47;;;6.80;;
11582;SDS011;34299;50.820;4.548;2023-04-06T07:35:58;13.10;;;6.93;;
11582;SDS011;34299;50.820;4.548;2023-04-06T07:38:25;14.10;;;6.60;;
11582;SDS011;34299;50.820;4.548;2023-04-06T07:40:52;12.00;;;6.13;;
11582;SDS011;34299;50.820;4.548;2023-04-06T07:43:21;11.00;;;6.20;;
11582;SDS011;34299;50.820;4.548;2023-04-06T07:45:48;15.83;;;7.70;;
11582;SDS011;34299;50.820;4.548;2023-04-06T07:48:16;10.93;;;6.90;;
11582;SDS011;34299;50.820;4.548;2023-04-06T07:50:43;11.23;;;6.10;;
11582;SDS011;34299;50.820;4.548;2023-04-06T07:53:10;12.07;;;7.20;;
11582;SDS011;34299;50.820;4.548;2023-04-06T07:55:37;13.43;;;5.30;;
11582;SDS011;34299;50.820;4.548;2023-04-06T07:58:05;8.97;;;5.67;;
11582;SDS011;34299;50.820;4.548;2023-04-06T08:00:34;12.77;;;6.87;;
11582;SDS011;34299;50.820;4.548;2023-04-06T08:03:01;8.10;;;5.03;;
11582;SDS011;34299;50.820;4.548;2023-04-06T08:05:28;10.10;;;6.13;;
11582;SDS011;34299;50.820;4.548;2023-04-06T08:07:56;10.20;;;6.13;;
11582;SDS011;34299;50.820;4.548;2023-04-06T08:10:23;8.90;;;6.30;;
11582;SDS011;34299;50.820;4.548;2023-04-06T08:12:50;14.93;;;6.97;;
11582;SDS011;34299;50.820;4.548;2023-04-06T08:15:17;13.37;;;5.87;;
11582;SDS011;34299;50.820;4.548;2023-04-06T08:17:46;13.63;;;6.97;;
11582;SDS011;34299;50.820;4.548;2023-04-06T08:20:13;11.37;;;5.47;;
11582;SDS011;34299;50.820;4.548;2023-04-06T08:22:41;9.80;;;5.50;;
11582;SDS011;34299;50.820;4.548;2023-04-06T08:25:08;8.20;;;5.30;;
11582;SDS011;34299;50.820;4.548;2023-04-06T08:27:35;7.43;;;4.43;;
11582;SDS011;34299;50.820;4.548;2023-04-06T08:30:03;9.73;;;4.10;;
11582;SDS011;34299;50.820;4.548;2023-04-06T08:32:30;12.27;;;6.07;;
11582;SDS011;34299;50.820;4.548;2023-04-06T08:34:59;12.23;;;5.47;;
11582;SDS011;34299;50.820;4.548;2023-04-06T08:37:26;9.30;;;4.67;;
11582;SDS011;34299;50.820;4.548;2023-04-06T08:39:53;10.17;;;5.30;;
11582;SDS011;34299;50.820;4.548;2023-04-06T08:42:21;11.33;;;5.63;;
11582;SDS011;34299;50.820;4.548;2023-04-06T08:44:48;12.27;;;5.17;;
11582;SDS011;34299;50.820;4.548;2023-04-06T08:47:17;10.70;;;5.13;;
11582;SDS011;34299;50.820;4.548;2023-04-06T08:49:45;9.93;;;5.13;;
11582;SDS011;34299;50.820;4.548;2023-04-06T08:52:14;9.67;;;5.70;;
11582;SDS011;34299;50.820;4.548;2023-04-06T08:54:43;10.93;;;6.13;;
11582;SDS011;34299;50.820;4.548;2023-04-06T08:57:10;7.80;;;5.63;;
11582;SDS011;34299;50.820;4.548;2023-04-06T08:59:38;8.10;;;4.87;;
11582;SDS011;34299;50.820;4.548;2023-04-06T09:02:06;8.97;;;4.87;;
11582;SDS011;34299;50.820;4.548;2023-04-06T09:04:35;6.70;;;5.03;;
11582;SDS011;34299;50.820;4.548;2023-04-06T09:07:02;10.40;;;5.10;;
11582;SDS011;34299;50.820;4.548;2023-04-06T09:09:31;9.33;;;5.53;;
11582;SDS011;34299;50.820;4.548;2023-04-06T09:11:58;10.63;;;5.87;;
11582;SDS011;34299;50.820;4.548;2023-04-06T09:14:34;10.10;;;5.03;;
11582;SDS011;34299;50.820;4.548;2023-04-06T09:17:02;8.10;;;4.70;;
11582;SDS011;34299;50.820;4.548;2023-04-06T09:19:29;10.37;;;5.80;;
11582;SDS011;34299;50.820;4.548;2023-04-06T09:22:03;9.27;;;5.60;;
11582;SDS011;34299;50.820;4.548;2023-04-06T09:24:43;8.47;;;5.27;;
11582;SDS011;34299;50.820;4.548;2023-04-06T09:27:10;6.93;;;3.87;;
11582;SDS011;34299;50.820;4.548;2023-04-06T09:29:38;10.00;;;5.10;;
11582;SDS011;34299;50.820;4.548;2023-04-06T09:32:05;10.83;;;6.47;;
11582;SDS011;34299;50.820;4.548;2023-04-06T09:34:35;14.60;;;6.93;;
11582;SDS011;34299;50.820;4.548;2023-04-06T09:37:11;8.00;;;4.80;;
11582;SDS011;34299;50.820;4.548;2023-04-06T09:39:39;11.13;;;6.00;;
11582;SDS011;34299;50.820;4.548;2023-04-06T09:42:07;10.60;;;5.57;;
11582;SDS011;34299;50.820;4.548;2023-04-06T09:44:35;8.13;;;5.43;;
11582;SDS011;34299;50.820;4.548;2023-04-06T09:47:03;11.30;;;6.60;;
11582;SDS011;34299;50.820;4.548;2023-04-06T09:49:32;8.73;;;5.47;;
11582;SDS011;34299;50.820;4.548;2023-04-06T09:52:02;9.17;;;5.77;;
11582;SDS011;34299;50.820;4.548;2023-04-06T09:54:30;8.97;;;5.73;;
11582;SDS011;34299;50.820;4.548;2023-04-06T09:56:58;9.93;;;5.83;;
11582;SDS011;34299;50.820;4.548;2023-04-06T09:59:31;8.03;;;5.13;;
11582;SDS011;34299;50.820;4.548;2023-04-06T10:02:05;9.20;;;4.97;;
11582;SDS011;34299;50.820;4.548;2023-04-06T10:04:34;5.83;;;4.10;;
11582;SDS011;34299;50.820;4.548;2023-04-06T10:07:03;10.03;;;5.70;;
11582;SDS011;34299;50.820;4.548;2023-04-06T10:09:31;11.43;;;6.00;;
11582;SDS011;34299;50.820;4.548;2023-04-06T10:12:02;6.90;;;3.87;;
11582;SDS011;34299;50.820;4.548;2023-04-06T10:14:31;5.43;;;3.37;;
11582;SDS011;34299;50.820;4.548;2023-04-06T10:17:00;7.97;;;4.53;;
11582;SDS011;34299;50.820;4.548;2023-04-06T10:19:28;8.83;;;5.13;;
11582;SDS011;34299;50.820;4.548;2023-04-06T10:21:57;9.53;;;5.13;;
11582;SDS011;34299;50.820;4.548;2023-04-06T10:24:26;6.83;;;3.57;;
11582;SDS011;34299;50.820;4.548;2023-04-06T10:26:56;7.23;;;4.30;;
11582;SDS011;34299;50.820;4.548;2023-04-06T10:29:24;5.40;;;3.37;;
11582;SDS011;34299;50.820;4.548;2023-04-06T10:31:52;8.63;;;3.17;;
11582;SDS011;34299;50.820;4.548;2023-04-06T10:34:20;13.20;;;5.67;;
11582;SDS011;34299;50.820;4.548;2023-04-06T10:36:47;7.87;;;4.33;;
11582;SDS011;34299;50.820;4.548;2023-04-06T10:39:14;7.60;;;4.80;;
11582;SDS011;34299;50.820;4.548;2023-04-06T10:41:52;7.73;;;5.30;;
11582;SDS011;34299;50.820;4.548;2023-04-06T10:44:20;10.17;;;5.33;;
11582;SDS011;34299;50.820;4.548;2023-04-06T10:46:56;5.93;;;4.03;;
11582;SDS011;34299;50.820;4.548;2023-04-06T10:49:25;9.80;;;5.00;;
11582;SDS011;34299;50.820;4.548;2023-04-06T10:51:53;7.83;;;4.67;;
11582;SDS011;34299;50.820;4.548;2023-04-06T10:54:20;3.47;;;2.73;;
11582;SDS011;34299;50.820;4.548;2023-04-06T10:56:48;3.50;;;2.43;;
11582;SDS011;34299;50.820;4.548;2023-04-06T10:59:18;7.57;;;5.00;;
11582;SDS011;34299;50.820;4.548;2023-04-06T11:01:46;4.00;;;3.63;;
11582;SDS011;34299;50.820;4.548;2023-04-06T11:04:17;5.53;;;3.93;;
11582;SDS011;34299;50.820;4.548;2023-04-06T11:06:46;5.87;;;3.47;;
11582;SDS011;34299;50.820;4.548;2023-04-06T11:09:22;8.77;;;5.00;;
11582;SDS011;34299;50.820;4.548;2023-04-06T11:11:51;5.10;;;3.70;;
11582;SDS011;34299;50.820;4.548;2023-04-06T11:14:18;7.87;;;4.73;;
11582;SDS011;34299;50.820;4.548;2023-04-06T11:16:46;7.30;;;4.67;;
11582;SDS011;34299;50.820;4.548;2023-04-06T11:19:14;6.13;;;2.00;;
11582;SDS011;34299;50.820;4.548;2023-04-06T11:21:43;7.07;;;4.80;;
11582;SDS011;34299;50.820;4.548;2023-04-06T11:24:12;6.47;;;4.80;;
11582;SDS011;34299;50.820;4.548;2023-04-06T11:26:41;3.97;;;3.53;;
11582;SDS011;34299;50.820;4.548;2023-04-06T11:29:08;6.60;;;4.33;;
11582;SDS011;34299;50.820;4.548;2023-04-06T11:31:39;7.70;;;4.57;;
11582;SDS011;34299;50.820;4.548;2023-04-06T11:34:10;5.50;;;3.40;;
11582;SDS011;34299;50.820;4.548;2023-04-06T11:36:39;8.67;;;4.50;;
11582;SDS011;34299;50.820;4.548;2023-04-06T11:39:09;4.20;;;3.80;;
11582;SDS011;34299;50.820;4.548;2023-04-06T11:41:36;8.03;;;4.53;;
11582;SDS011;34299;50.820;4.548;2023-04-06T11:44:04;4.37;;;3.47;;
11582;SDS011;34299;50.820;4.548;2023-04-06T11:46:32;3.50;;;2.30;;
11582;SDS011;34299;50.820;4.548;2023-04-06T11:48:59;7.97;;;5.03;;
11582;SDS011;34299;50.820;4.548;2023-04-06T11:51:27;4.83;;;3.43;;
11582;SDS011;34299;50.820;4.548;2023-04-06T11:53:54;8.80;;;4.17;;
11582;SDS011;34299;50.820;4.548;2023-04-06T11:56:28;7.30;;;5.10;;
11582;SDS011;34299;50.820;4.548;2023-04-06T11:58:56;8.50;;;5.00;;
11582;SDS011;34299;50.820;4.548;2023-04-06T12:01:25;5.97;;;2.57;;
11582;SDS011;34299;50.820;4.548;2023-04-06T12:03:52;7.43;;;5.30;;
11582;SDS011;34299;50.820;4.548;2023-04-06T12:06:20;6.13;;;4.23;;
11582;SDS011;34299;50.820;4.548;2023-04-06T12:08:47;7.37;;;4.40;;
11582;SDS011;34299;50.820;4.548;2023-04-06T12:11:14;5.47;;;3.90;;
11582;SDS011;34299;50.820;4.548;2023-04-06T12:13:43;7.30;;;5.13;;
11582;SDS011;34299;50.820;4.548;2023-04-06T12:16:10;8.90;;;5.60;;
11582;SDS011;34299;50.820;4.548;2023-04-06T12:18:37;7.27;;;4.07;;
11582;SDS011;34299;50.820;4.548;2023-04-06T12:21:05;6.30;;;3.97;;
11582;SDS011;34299;50.820;4.548;2023-04-06T12:23:32;6.73;;;5.00;;
11582;SDS011;34299;50.820;4.548;2023-04-06T12:25:59;8.70;;;5.33;;
11582;SDS011;34299;50.820;4.548;2023-04-06T12:28:27;8.30;;;5.70;;
11582;SDS011;34299;50.820;4.548;2023-04-06T12:30:56;11.23;;;6.33;;
11582;SDS011;34299;50.820;4.548;2023-04-06T12:33:23;8.30;;;5.93;;
11582;SDS011;34299;50.820;4.548;2023-04-06T12:35:50;4.47;;;3.03;;
11582;SDS011;34299;50.820;4.548;2023-04-06T12:38:17;6.57;;;4.57;;
11582;SDS011;34299;50.820;4.548;2023-04-06T12:40:45;8.93;;;5.63;;
11582;SDS011;34299;50.820;4.548;2023-04-06T12:43:12;5.33;;;3.30;;
11582;SDS011;34299;50.820;4.548;2023-04-06T12:45:40;5.80;;;4.63;;
11582;SDS011;34299;50.820;4.548;2023-04-06T12:48:08;15.10;;;6.37;;
11582;SDS011;34299;50.820;4.548;2023-04-06T12:50:36;8.87;;;5.83;;
11582;SDS011;34299;50.820;4.548;2023-04-06T12:53:03;6.20;;;4.60;;
11582;SDS011;34299;50.820;4.548;2023-04-06T12:55:30;9.77;;;4.17;;
11582;SDS011;34299;50.820;4.548;2023-04-06T12:58:00;5.33;;;3.17;;
11582;SDS011;34299;50.820;4.548;2023-04-06T13:00:28;9.77;;;5.87;;
11582;SDS011;34299;50.820;4.548;2023-04-06T13:02:56;9.60;;;5.93;;
11582;SDS011;34299;50.820;4.548;2023-04-06T13:05:24;7.03;;;4.20;;
11582;SDS011;34299;50.820;4.548;2023-04-06T13:07:52;10.33;;;5.27;;
11582;SDS011;34299;50.820;4.548;2023-04-06T13:10:19;4.63;;;3.40;;
11582;SDS011;34299;50.820;4.548;2023-04-06T13:12:46;7.97;;;5.50;;
11582;SDS011;34299;50.820;4.548;2023-04-06T13:15:13;9.00;;;6.33;;
11582;SDS011;34299;50.820;4.548;2023-04-06T13:17:41;10.37;;;6.00;;
11582;SDS011;34299;50.820;4.548;2023-04-06T13:20:09;12.23;;;6.90;;
11582;SDS011;34299;50.820;4.548;2023-04-06T13:22:37;10.07;;;5.83;;
11582;SDS011;34299;50.820;4.548;2023-04-06T13:25:05;9.57;;;5.67;;
11582;SDS011;34299;50.820;4.548;2023-04-06T13:27:32;10.73;;;5.93;;
11582;SDS011;34299;50.820;4.548;2023-04-06T13:30:00;11.10;;;5.47;;
11582;SDS011;34299;50.820;4.548;2023-04-06T13:32:28;14.03;;;6.87;;
11582;SDS011;34299;50.820;4.548;2023-04-06T13:34:56;12.33;;;6.53;;
11582;SDS011;34299;50.820;4.548;2023-04-06T13:37:23;5.90;;;4.13;;
11582;SDS011;34299;50.820;4.548;2023-04-06T13:39:52;12.37;;;6.60;;
11582;SDS011;34299;50.820;4.548;2023-04-06T13:42:19;9.67;;;6.43;;
11582;SDS011;34299;50.820;4.548;2023-04-06T13:44:46;11.80;;;5.37;;
11582;SDS011;34299;50.820;4.548;2023-04-06T13:47:15;12.53;;;6.90;;
11582;SDS011;34299;50.820;4.548;2023-04-06T13:49:43;10.20;;;5.13;;
11582;SDS011;34299;50.820;4.548;2023-04-06T13:52:10;13.13;;;6.90;;
11582;SDS011;34299;50.820;4.548;2023-04-06T13:54:37;10.57;;;7.17;;
11582;SDS011;34299;50.820;4.548;2023-04-06T13:57:06;9.23;;;6.50;;
11582;SDS011;34299;50.820;4.548;2023-04-06T13:59:33;13.90;;;6.70;;
11582;SDS011;34299;50.820;4.548;2023-04-06T14:02:01;5.57;;;4.47;;
11582;SDS011;34299;50.820;4.548;2023-04-06T14:04:28;11.47;;;7.67;;
11582;SDS011;34299;50.820;4.548;2023-04-06T14:06:55;6.87;;;4.33;;
11582;SDS011;34299;50.820;4.548;2023-04-06T14:09:22;8.67;;;4.47;;
11582;SDS011;34299;50.820;4.548;2023-04-06T14:11:50;12.73;;;8.17;;
11582;SDS011;34299;50.820;4.548;2023-04-06T14:14:18;11.03;;;6.13;;
11582;SDS011;34299;50.820;4.548;2023-04-06T14:16:46;11.27;;;6.13;;
11582;SDS011;34299;50.820;4.548;2023-04-06T14:19:14;13.63;;;5.33;;
11582;SDS011;34299;50.820;4.548;2023-04-06T14:21:42;12.47;;;7.17;;
11582;SDS011;34299;50.820;4.548;2023-04-06T14:24:09;5.43;;;4.03;;
11582;SDS011;34299;50.820;4.548;2023-04-06T14:26:38;5.57;;;4.97;;
11582;SDS011;34299;50.820;4.548;2023-04-06T14:29:06;8.03;;;4.80;;
11582;SDS011;34299;50.820;4.548;2023-04-06T14:31:35;9.03;;;5.17;;
11582;SDS011;34299;50.820;4.548;2023-04-06T14:34:03;9.77;;;5.43;;
11582;SDS011;34299;50.820;4.548;2023-04-06T14:36:30;11.23;;;6.90;;
11582;SDS011;34299;50.820;4.548;2023-04-06T14:39:01;9.33;;;5.80;;
11582;SDS011;34299;50.820;4.548;2023-04-06T14:41:30;11.33;;;6.63;;
11582;SDS011;34299;50.820;4.548;2023-04-06T14:43:57;10.50;;;7.27;;